Time;durP1;ratioP1;P1;durP2;ratioP2;P2;SDS_P1;SDS_P2;PMS_P1;PMS_P2;Temp;Humidity;BMP_temperature;BMP_pressure;BME280_temperature;BME280_humidity;BME280_pressure;Samples;Min_cycle;Max_cycle;Signal;HPM_P1;HPM_P2
2023/09/14 00:00:42;;;;;;;13.07;3.20;;;;;;;10.08;100.00;101561.00;5055226;28;20028;-76
2023/09/14 00:03:07;;;;;;;4.05;1.85;;;;;;;10.01;100.00;101548.34;5030961;28;20042;-75
2023/09/14 00:05:38;;;;;;;5.80;2.00;;;;;;;9.96;100.00;101545.28;5053394;28;20031;-77
2023/09/14 00:08:04;;;;;;;8.00;2.75;;;;;;;9.92;100.00;101550.88;5050606;28;20124;-77
2023/09/14 00:10:29;;;;;;;5.30;2.20;;;;;;;9.93;100.00;101551.72;5053846;28;20420;-78
2023/09/14 00:12:55;;;;;;;2.83;2.10;;;;;;;9.86;100.00;101555.94;5056585;28;20123;-77
2023/09/14 00:15:21;;;;;;;4.45;1.85;;;;;;;9.83;100.00;101562.38;5052695;28;20036;-77
2023/09/14 00:17:46;;;;;;;12.15;2.90;;;;;;;9.79;100.00;101565.47;5053973;28;20838;-77
2023/09/14 00:20:18;;;;;;;5.07;2.17;;;;;;;9.82;100.00;101568.69;5055412;28;20024;-76
2023/09/14 00:22:43;;;;;;;6.63;2.47;;;;;;;9.75;100.00;101564.03;5055436;28;20045;-77
2023/09/14 00:25:08;;;;;;;8.97;2.70;;;;;;;9.67;100.00;101557.56;5036046;28;20026;-77
2023/09/14 00:27:34;;;;;;;10.80;2.30;;;;;;;9.64;100.00;101549.84;5053765;28;20040;-77
2023/09/14 00:30:02;;;;;;;5.07;2.93;;;;;;;9.65;100.00;101556.03;5051476;28;20025;-77
2023/09/14 00:32:28;;;;;;;8.32;2.67;;;;;;;9.52;100.00;101545.59;5057741;28;20060;-77
2023/09/14 00:34:53;;;;;;;5.03;2.53;;;;;;;9.64;100.00;101563.16;5051979;28;20067;-77
2023/09/14 00:37:18;;;;;;;4.33;2.10;;;;;;;9.63;100.00;101565.97;5041785;28;20082;-77
2023/09/14 00:39:44;;;;;;;7.87;2.27;;;;;;;9.58;100.00;101562.88;5051015;28;20017;-76
2023/09/14 00:42:09;;;;;;;7.67;2.60;;;;;;;9.60;100.00;101572.44;5062481;28;20036;-77
2023/09/14 00:44:34;;;;;;;4.17;2.17;;;;;;;9.54;100.00;101564.13;5055960;28;20111;-77
2023/09/14 00:47:00;;;;;;;4.47;2.20;;;;;;;9.64;100.00;101573.81;5036357;28;20495;-77
2023/09/14 00:49:25;;;;;;;7.90;2.33;;;;;;;9.67;100.00;101580.75;5056407;28;20450;-76
2023/09/14 00:51:51;;;;;;;7.60;1.98;;;;;;;9.64;100.00;101562.31;5057571;28;20263;-76
2023/09/14 00:54:17;;;;;;;4.50;2.00;;;;;;;9.54;100.00;101550.81;5057117;28;20843;-76
2023/09/14 00:56:42;;;;;;;3.08;1.90;;;;;;;9.60;100.00;101564.44;5065309;28;20472;-76
2023/09/14 00:59:08;;;;;;;5.60;1.60;;;;;;;9.58;100.00;101568.22;5061395;28;20040;-76
2023/09/14 01:01:34;;;;;;;7.28;1.90;;;;;;;9.69;100.00;101576.94;5056178;28;20283;-76
2023/09/14 01:04:00;;;;;;;8.32;2.45;;;;;;;9.65;100.00;101572.88;5044930;28;20032;-76
2023/09/14 01:06:25;;;;;;;5.05;2.22;;;;;;;9.58;100.00;101566.41;5044645;28;20544;-76
2023/09/14 01:08:53;;;;;;;6.22;3.17;;;;;;;9.59;100.00;101565.41;5028023;28;20495;-77
2023/09/14 01:11:19;;;;;;;5.38;2.83;;;;;;;9.42;100.00;101560.72;5044635;28;20074;-77
2023/09/14 01:13:59;;;;;;;7.15;2.65;;;;;;;9.51;100.00;101579.41;5044714;28;20480;-77
2023/09/14 01:16:38;;;;;;;4.75;1.90;;;;;;;9.48;100.00;101582.38;5045435;28;20040;-77
2023/09/14 01:19:39;;;;;;;3.88;1.88;;;;;;;9.43;100.00;101570.41;5057634;28;20021;-77
2023/09/14 01:22:22;;;;;;;4.05;2.67;;;;;;;9.38;100.00;101580.63;5049986;28;20037;-77
2023/09/14 01:24:58;;;;;;;3.55;1.85;;;;;;;9.37;100.00;101586.94;5044568;28;20043;-78
2023/09/14 01:27:24;;;;;;;5.78;2.03;;;;;;;9.35;100.00;101595.06;5044379;28;20067;-78
2023/09/14 01:29:50;;;;;;;6.25;2.00;;;;;;;9.32;100.00;101592.69;5046288;28;20037;-76
2023/09/14 01:32:16;;;;;;;3.80;1.90;;;;;;;9.26;100.00;101588.69;5046869;28;20044;-76
2023/09/14 01:34:42;;;;;;;3.42;2.50;;;;;;;9.29;100.00;101596.47;5044462;28;20090;-76
2023/09/14 01:37:07;;;;;;;7.03;1.95;;;;;;;9.41;100.00;101615.00;5050742;28;20040;-77
2023/09/14 01:39:34;;;;;;;5.17;2.40;;;;;;;9.45;100.00;101611.94;5064538;28;20031;-76
2023/09/14 01:42:02;;;;;;;6.07;2.17;;;;;;;9.46;100.00;101605.63;5063962;28;20035;-77
2023/09/14 01:44:27;;;;;;;9.15;2.67;;;;;;;9.40;100.00;101603.50;5064197;28;20055;-77
2023/09/14 01:46:54;;;;;;;4.93;2.80;;;;;;;9.51;100.00;101615.91;5064236;28;20071;-77
2023/09/14 01:49:20;;;;;;;6.68;2.95;;;;;;;9.46;100.00;101599.47;5064358;28;20267;-77
2023/09/14 01:51:45;;;;;;;4.80;2.10;;;;;;;9.50;100.00;101600.88;5064492;28;20094;-77
2023/09/14 01:54:11;;;;;;;17.60;4.17;;;;;;;9.51;100.00;101589.25;5064492;28;20275;-77
2023/09/14 01:56:36;;;;;;;6.37;2.17;;;;;;;9.48;100.00;101593.03;5064142;28;20870;-77
2023/09/14 01:59:02;;;;;;;4.45;2.22;;;;;;;9.45;100.00;101579.09;5067534;28;20062;-77
2023/09/14 02:01:27;;;;;;;5.80;3.53;;;;;;;9.55;100.00;101595.97;5067787;28;20592;-77
2023/09/14 02:03:53;;;;;;;4.00;2.10;;;;;;;9.52;100.00;101580.25;5067945;28;20166;-78
2023/09/14 02:06:19;;;;;;;9.15;2.58;;;;;;;9.37;100.00;101577.13;5051409;28;20286;-77
2023/09/14 02:08:45;;;;;;;7.45;2.95;;;;;;;9.39;100.00;101577.84;5068053;28;20017;-77
2023/09/14 02:11:13;;;;;;;6.70;2.33;;;;;;;9.47;100.00;101582.47;5069343;28;20036;-79
2023/09/14 02:13:42;;;;;;;6.25;2.40;;;;;;;9.47;100.00;101577.16;5062143;28;20039;-76
2023/09/14 02:16:07;;;;;;;7.93;2.63;;;;;;;9.39;100.00;101574.31;5048608;28;20033;-77
2023/09/14 02:18:33;;;;;;;6.43;2.57;;;;;;;9.26;100.00;101569.22;5067014;28;20372;-76
2023/09/14 02:20:58;;;;;;;8.27;2.20;;;;;;;9.26;100.00;101574.53;5067909;28;20285;-76
2023/09/14 02:23:24;;;;;;;7.33;2.70;;;;;;;9.18;100.00;101550.41;5067045;28;20033;-76
2023/09/14 02:25:50;;;;;;;6.07;2.22;;;;;;;9.20;100.00;101569.75;5067924;28;20028;-76
2023/09/14 02:28:15;;;;;;;4.28;2.30;;;;;;;9.07;100.00;101567.31;5050570;28;20028;-76
2023/09/14 02:30:42;;;;;;;7.50;3.13;;;;;;;9.17;100.00;101586.00;5047779;28;20476;-77
2023/09/14 02:33:07;;;;;;;7.47;2.78;;;;;;;9.21;100.00;101587.44;5059422;28;20078;-76
2023/09/14 02:35:35;;;;;;;5.78;2.40;;;;;;;9.19;100.00;101584.88;5058235;28;20028;-77
2023/09/14 02:38:00;;;;;;;5.25;2.47;;;;;;;9.10;100.00;101580.34;5051417;28;20027;-76
2023/09/14 02:40:25;;;;;;;4.57;2.40;;;;;;;9.03;100.00;101569.38;5062226;28;20040;-77
2023/09/14 02:42:51;;;;;;;4.83;2.60;;;;;;;9.01;100.00;101583.81;5050952;28;20637;-77
2023/09/14 02:45:16;;;;;;;6.33;3.03;;;;;;;9.00;100.00;101587.47;5037860;28;20037;-77
2023/09/14 02:47:41;;;;;;;8.80;3.13;;;;;;;8.97;100.00;101585.06;5059638;28;20025;-76
2023/09/14 02:50:07;;;;;;;6.83;2.87;;;;;;;9.00;100.00;101596.28;5065820;28;20037;-76
2023/09/14 02:52:32;;;;;;;7.23;2.73;;;;;;;8.95;100.00;101587.84;5052905;28;20025;-76
2023/09/14 02:54:59;;;;;;;8.23;3.00;;;;;;;9.07;100.00;101600.13;5050876;28;20032;-77
2023/09/14 02:57:24;;;;;;;10.50;2.80;;;;;;;9.04;100.00;101600.38;5045249;28;20088;-77
2023/09/14 02:59:53;;;;;;;6.05;2.63;;;;;;;9.04;100.00;101608.38;5051743;28;20134;-76
2023/09/14 03:02:18;;;;;;;3.78;2.20;;;;;;;8.95;100.00;101598.50;5059982;28;20483;-76
2023/09/14 03:04:44;;;;;;;4.20;2.57;;;;;;;8.97;100.00;101595.72;5050641;28;20046;-77
2023/09/14 03:07:09;;;;;;;5.55;2.88;;;;;;;8.93;100.00;101599.63;5062377;28;20028;-76
2023/09/14 03:09:35;;;;;;;10.55;3.15;;;;;;;8.83;100.00;101597.72;5056833;28;20045;-78
2023/09/14 03:12:01;;;;;;;9.57;2.60;;;;;;;8.82;100.00;101596.03;5034534;28;20554;-77
2023/09/14 03:14:26;;;;;;;10.95;2.85;;;;;;;8.87;100.00;101606.28;5048741;28;20063;-76
2023/09/14 03:16:52;;;;;;;5.10;2.93;;;;;;;8.82;100.00;101609.34;5050659;28;20523;-76
2023/09/14 03:19:17;;;;;;;7.35;3.00;;;;;;;8.73;100.00;101594.13;5059252;28;20047;-76
2023/09/14 03:21:43;;;;;;;7.37;3.33;;;;;;;8.72;100.00;101602.28;5048121;28;20033;-77
2023/09/14 03:24:08;;;;;;;10.90;3.83;;;;;;;8.71;100.00;101601.44;5076686;28;20036;-77
2023/09/14 03:26:34;;;;;;;5.50;2.70;;;;;;;8.64;100.00;101595.78;5058193;28;20046;-77
2023/09/14 03:28:59;;;;;;;6.77;2.63;;;;;;;8.63;100.00;101601.22;5047332;28;20108;-77
2023/09/14 03:31:25;;;;;;;7.63;3.37;;;;;;;8.55;100.00;101587.72;5060550;28;20274;-78
2023/09/14 03:33:52;;;;;;;7.80;2.83;;;;;;;8.63;100.00;101609.22;5032552;28;20055;-77
2023/09/14 03:36:18;;;;;;;10.32;2.65;;;;;;;8.63;100.00;101606.56;5062022;28;20071;-75
2023/09/14 03:38:43;;;;;;;7.00;3.47;;;;;;;8.71;100.00;101616.56;5050829;28;20101;-77
2023/09/14 03:41:10;;;;;;;7.68;3.15;;;;;;;8.66;100.00;101616.94;5049636;28;20036;-77
2023/09/14 03:43:36;;;;;;;4.80;2.60;;;;;;;8.68;100.00;101617.66;5049168;28;20028;-77
2023/09/14 03:46:01;;;;;;;4.97;2.93;;;;;;;8.62;100.00;101612.88;5060095;28;20077;-76
2023/09/14 03:48:27;;;;;;;6.95;2.88;;;;;;;8.69;100.00;101618.53;5059574;28;20037;-77
2023/09/14 03:50:54;;;;;;;7.33;2.83;;;;;;;8.65;100.00;101609.94;5047609;28;20449;-76
2023/09/14 03:53:19;;;;;;;6.80;3.53;;;;;;;8.58;100.00;101616.75;5058403;28;20468;-76
2023/09/14 03:55:45;;;;;;;3.63;2.53;;;;;;;8.57;100.00;101612.38;5060976;28;20032;-77
2023/09/14 03:58:11;;;;;;;6.20;3.22;;;;;;;8.59;100.00;101623.75;5058358;28;20501;-76
2023/09/14 04:00:36;;;;;;;5.22;2.80;;;;;;;8.56;100.00;101616.88;5054316;28;20924;-76
2023/09/14 04:03:02;;;;;;;7.78;2.88;;;;;;;8.56;100.00;101618.69;5053801;28;20040;-75
2023/09/14 04:05:28;;;;;;;6.37;2.90;;;;;;;8.49;100.00;101617.50;5057717;28;20040;-77
2023/09/14 04:07:54;;;;;;;;;;;;;;;8.52;100.00;101628.75;5046646;28;20029;-78
2023/09/14 04:10:19;;;;;;;5.35;2.30;;;;;;;8.40;100.00;101605.81;5059207;28;19912;-78
2023/09/14 04:12:45;;;;;;;7.38;2.80;;;;;;;8.49;100.00;101622.84;5049162;28;20108;-77
2023/09/14 04:15:11;;;;;;;7.20;2.70;;;;;;;8.42;100.00;101612.69;5060738;28;20044;-79
2023/09/14 04:17:37;;;;;;;5.88;3.08;;;;;;;8.37;100.00;101609.53;5055240;28;20403;-77
2023/09/14 04:20:09;;;;;;;5.90;2.95;;;;;;;8.38;100.00;101616.56;5047624;28;20025;-76
2023/09/14 04:22:39;;;;;;;9.52;3.40;;;;;;;8.38;100.00;101611.25;5055779;28;20051;-76
2023/09/14 04:25:06;;;;;;;6.43;2.47;;;;;;;8.33;100.00;101607.25;5038122;28;20036;-77
2023/09/14 04:27:32;;;;;;;5.72;2.72;;;;;;;8.32;100.00;101600.25;5056901;28;20662;-76
2023/09/14 04:29:57;;;;;;;6.72;3.22;;;;;;;8.28;100.00;101604.13;5062747;28;20111;-77
2023/09/14 04:32:22;;;;;;;6.53;3.10;;;;;;;8.24;100.00;101598.22;5058839;28;20021;-77
2023/09/14 04:34:48;;;;;;;5.40;3.00;;;;;;;8.24;100.00;101606.19;5045801;28;20502;-77
2023/09/14 04:37:13;;;;;;;4.70;2.93;;;;;;;8.21;100.00;101595.81;5054735;28;20063;-76
2023/09/14 04:39:39;;;;;;;6.68;2.97;;;;;;;8.24;100.00;101606.19;5058938;28;20056;-77
2023/09/14 04:42:05;;;;;;;6.17;2.90;;;;;;;8.23;100.00;101607.19;5060310;28;20502;-76
2023/09/14 04:44:30;;;;;;;11.32;3.45;;;;;;;8.18;100.00;101625.34;5060150;28;20033;-77
2023/09/14 04:46:56;;;;;;;6.03;2.63;;;;;;;8.18;100.00;101617.34;5049279;28;20548;-77
2023/09/14 04:49:21;;;;;;;7.00;2.93;;;;;;;8.24;100.00;101636.31;5057512;28;20434;-77
2023/09/14 04:51:47;;;;;;;3.77;2.67;;;;;;;8.31;100.00;101647.31;5049697;28;20020;-77
2023/09/14 04:54:12;;;;;;;7.80;3.00;;;;;;;8.35;100.00;101643.41;5042037;28;20082;-76
2023/09/14 04:56:37;;;;;;;6.17;3.23;;;;;;;8.45;100.00;101657.69;5037894;28;20032;-76
2023/09/14 04:59:04;;;;;;;7.20;3.40;;;;;;;8.49;100.00;101649.44;5045964;28;20036;-81
2023/09/14 05:01:29;;;;;;;;;;;;;;;8.44;100.00;101656.00;5056789;28;20454;-76
2023/09/14 05:03:54;;;;;;;;;;;;;;;8.42;100.00;101657.94;5048680;28;19985;-76
2023/09/14 05:06:20;;;;;;;5.90;2.80;;;;;;;8.45;100.00;101657.69;5059336;28;19912;-77
2023/09/14 05:08:45;;;;;;;5.73;3.13;;;;;;;8.51;100.00;101660.81;5047587;28;20043;-77
2023/09/14 05:11:10;;;;;;;8.43;2.93;;;;;;;8.60;100.00;101676.03;5060901;28;20021;-76
2023/09/14 05:13:36;;;;;;;5.83;3.13;;;;;;;8.72;100.00;101682.16;5072622;28;20029;-76
2023/09/14 05:16:02;;;;;;;8.37;3.53;;;;;;;8.95;100.00;101698.88;5055098;28;20300;-75
2023/09/14 05:18:28;;;;;;;;;;;;;;;9.18;100.00;101710.25;5057103;28;20082;-78
2023/09/14 05:20:53;;;;;;;8.30;3.92;;;;;;;9.17;100.00;101709.41;5060578;28;19913;-77
2023/09/14 05:23:19;;;;;;;8.38;3.90;;;;;;;9.23;100.00;101716.88;5057181;28;20039;-76
2023/09/14 05:25:45;;;;;;;11.27;4.20;;;;;;;9.40;100.00;101731.44;5048558;28;20054;-77
2023/09/14 05:28:12;;;;;;;8.95;4.60;;;;;;;9.45;100.00;101729.22;5057590;28;20036;-77
2023/09/14 05:30:38;;;;;;;10.82;4.47;;;;;;;9.59;100.00;101722.69;5055978;28;20374;-77
2023/09/14 05:33:04;;;;;;;4.85;3.33;;;;;;;9.55;100.00;101721.25;5046604;28;20033;-77
2023/09/14 05:35:30;;;;;;;6.60;3.45;;;;;;;9.65;100.00;101713.34;5063339;28;20025;-77
2023/09/14 05:37:56;;;;;;;6.20;3.30;;;;;;;9.81;100.00;101716.38;5062903;28;20663;-78
2023/09/14 05:40:21;;;;;;;4.63;3.00;;;;;;;9.85;100.00;101704.44;5063017;28;20588;-76
2023/09/14 05:42:47;;;;;;;8.57;2.70;;;;;;;9.88;100.00;101696.19;5080634;22;20413;-76
2023/09/14 05:45:12;;;;;;;7.47;3.00;;;;;;;9.93;100.00;101695.78;5023150;28;20479;-76
2023/09/14 05:47:38;;;;;;;5.63;3.03;;;;;;;10.04;100.00;101687.63;5007047;28;20030;-75
2023/09/14 05:50:06;;;;;;;9.03;3.13;;;;;;;10.00;100.00;101677.41;5027283;28;20021;-77
2023/09/14 05:52:32;;;;;;;7.22;3.45;;;;;;;10.25;100.00;101684.03;5022549;28;20033;-76
2023/09/14 05:54:58;;;;;;;5.18;3.10;;;;;;;10.30;100.00;101676.50;5026467;28;20029;-75
2023/09/14 05:57:24;;;;;;;4.07;2.72;;;;;;;10.48;100.00;101680.19;5038025;28;20112;-76
2023/09/14 05:59:49;;;;;;;5.18;3.03;;;;;;;11.08;100.00;101700.56;5024334;28;20549;-77
2023/09/14 06:02:16;;;;;;;7.43;2.40;;;;;;;11.76;100.00;101706.59;5024490;28;20025;-77
2023/09/14 06:04:41;;;;;;;8.50;3.53;;;;;;;12.45;100.00;101686.53;5023290;28;20048;-77
2023/09/14 06:07:07;;;;;;;4.20;2.23;;;;;;;13.05;100.00;101656.38;5024526;28;20034;-78
2023/09/14 06:09:32;;;;;;;5.83;2.00;;;;;;;13.19;100.00;101622.81;5022583;28;20033;-77
2023/09/14 06:11:58;;;;;;;3.55;1.88;;;;;;;13.49;100.00;101586.63;5010223;28;20337;-77
2023/09/14 06:14:23;;;;;;;4.43;2.50;;;;;;;13.59;100.00;101585.66;5021388;28;20091;-77
2023/09/14 06:16:49;;;;;;;2.80;1.87;;;;;;;14.39;100.00;101636.19;5025366;28;20037;-77
2023/09/14 06:19:14;;;;;;;4.43;1.80;;;;;;;15.40;100.00;101593.63;5023918;28;20061;-78
2023/09/14 06:21:40;;;;;;;3.15;1.40;;;;;;;15.61;100.00;101358.84;5020663;28;20044;-77
2023/09/14 06:24:06;;;;;;;4.60;2.10;;;;;;;16.48;100.00;101340.50;5024091;28;20043;-77
2023/09/14 06:26:31;;;;;;;5.13;1.88;;;;;;;17.19;100.00;101241.78;5021638;28;20115;-77
2023/09/14 06:28:56;;;;;;;4.77;2.60;;;;;;;17.48;100.00;101069.88;5024321;28;20431;-77
2023/09/14 06:31:22;;;;;;;4.30;1.87;;;;;;;17.65;100.00;100947.03;5023583;28;20033;-77
2023/09/14 06:33:51;;;;;;;5.55;1.60;;;;;;;17.55;100.00;100778.38;5038639;28;20041;-77
2023/09/14 06:36:18;;;;;;;7.18;2.25;;;;;;;17.44;100.00;100694.31;5023963;28;20029;-78
2023/09/14 06:38:48;;;;;;;4.50;1.52;;;;;;;17.67;100.00;100561.56;5020189;28;20048;-77
2023/09/14 06:41:15;;;;;;;6.20;1.67;;;;;;;17.85;100.00;100519.56;5021538;28;20025;-78
2023/09/14 06:43:42;;;;;;;3.40;1.77;;;;;;;17.46;100.00;100494.38;5020191;28;20132;-77
2023/09/14 06:46:09;;;;;;;5.15;1.80;;;;;;;18.05;100.00;100444.66;5024858;28;20104;-77
2023/09/14 06:48:35;;;;;;;1.92;1.35;;;;;;;18.00;100.00;100368.84;5019721;28;20041;-77
2023/09/14 06:51:01;;;;;;;7.28;1.80;;;;;;;18.61;100.00;100545.66;5021304;28;20499;-77
2023/09/14 06:53:26;;;;;;;4.80;1.67;;;;;;;18.60;100.00;100383.69;5022840;28;20064;-77
2023/09/14 06:55:52;;;;;;;3.70;1.40;;;;;;;18.92;100.00;100301.38;5023311;28;20025;-77
2023/09/14 06:58:17;;;;;;;1.77;1.48;;;;;;;18.48;100.00;100005.19;5024470;28;20034;-77
2023/09/14 07:00:42;;;;;;;1.63;1.20;;;;;;;18.62;100.00;100103.13;5022982;28;20021;-78
2023/09/14 07:03:08;;;;;;;4.13;1.87;;;;;;;18.15;100.00;100095.69;5022567;28;20037;-77
2023/09/14 07:05:35;;;;;;;4.23;1.30;;;;;;;17.47;100.00;100048.09;5021713;28;20359;-77
2023/09/14 07:08:00;;;;;;;3.67;1.30;;;;;;;16.77;100.00;100227.03;5020273;28;20067;-77
2023/09/14 07:10:26;;;;;;;2.75;1.67;;;;;;;16.32;100.00;100309.69;5019980;28;20057;-76
2023/09/14 07:12:51;;;;;;;5.53;1.67;;;;;;;16.39;100.00;100397.56;5020468;28;20030;-77
2023/09/14 07:15:17;;;;;;;2.70;1.33;;;;;;;16.46;100.00;100656.25;5022666;28;20287;-76
2023/09/14 07:17:42;;;;;;;2.30;1.20;;;;;;;17.05;100.00;100776.88;5020949;28;20034;-77
2023/09/14 07:20:09;;;;;;;3.87;1.10;;;;;;;17.66;100.00;100796.66;5022882;28;20025;-76
2023/09/14 07:22:35;;;;;;;3.70;1.42;;;;;;;17.79;100.00;100698.59;5021037;28;20033;-76
2023/09/14 07:25:02;;;;;;;6.38;1.63;;;;;;;18.22;100.00;100695.41;5021217;28;20028;-77
2023/09/14 07:27:27;;;;;;;1.90;1.33;;;;;;;18.49;100.00;100472.56;5019639;28;20087;-77
2023/09/14 07:29:52;;;;;;;3.60;1.50;;;;;;;18.39;100.00;100434.41;5020921;28;20013;-77
2023/09/14 07:32:19;;;;;;;3.30;1.37;;;;;;;18.91;100.00;100562.06;5015791;28;20084;-77
2023/09/14 07:34:44;;;;;;;4.40;1.40;;;;;;;18.97;100.00;100233.88;5019102;28;20026;-76
2023/09/14 07:37:10;;;;;;;4.10;1.13;;;;;;;18.57;100.00;100333.59;5022353;28;20036;-76
2023/09/14 07:39:35;;;;;;;3.07;1.30;;;;;;;18.58;100.00;100256.03;5021935;28;20721;-77
2023/09/14 07:42:00;;;;;;;2.13;1.40;;;;;;;18.19;100.00;100074.41;5023254;28;20572;-77
2023/09/14 07:44:26;;;;;;;1.90;1.10;;;;;;;18.46;100.00;100301.91;5021128;28;20044;-77
2023/09/14 07:46:51;;;;;;;4.07;1.50;;;;;;;18.38;99.77;99946.31;5020015;28;20037;-77
2023/09/14 07:49:16;;;;;;;3.73;1.30;;;;;;;18.53;99.39;100035.88;5022206;28;20032;-77
2023/09/14 07:51:42;;;;;;;2.50;1.17;;;;;;;19.19;98.47;100155.69;5032512;28;20096;-76
2023/09/14 07:54:07;;;;;;;2.13;1.30;;;;;;;19.53;96.75;100072.03;5021467;28;20025;-77
2023/09/14 07:56:33;;;;;;;2.67;1.30;;;;;;;19.73;94.20;99955.22;5017799;28;20345;-77
2023/09/14 07:58:58;;;;;;;3.43;2.03;;;;;;;19.81;91.52;99807.78;5019010;28;20284;-77
2023/09/14 08:01:23;;;;;;;5.03;1.47;;;;;;;19.71;90.20;99732.59;5020722;28;20033;-77
2023/09/14 08:03:49;;;;;;;2.77;1.03;;;;;;;19.67;86.22;99482.34;5019432;28;20408;-77
2023/09/14 08:06:19;;;;;;;2.67;1.00;;;;;;;19.70;85.88;99460.19;5021177;28;20056;-77
2023/09/14 08:08:47;;;;;;;4.55;1.00;;;;;;;20.20;80.52;99204.34;5017192;28;20080;-76
2023/09/14 08:11:13;;;;;;;3.22;0.90;;;;;;;19.57;80.97;99138.41;5018060;28;20693;-76
2023/09/14 08:13:38;;;;;;;5.90;1.37;;;;;;;20.57;82.71;99629.13;5021212;28;20057;-77
2023/09/14 08:16:05;;;;;;;3.87;1.43;;;;;;;20.77;78.69;99250.75;5025070;28;20515;-77
2023/09/14 08:18:30;;;;;;;2.15;1.02;;;;;;;20.20;75.35;98805.25;5022245;28;20060;-75
2023/09/14 08:20:56;;;;;;;1.60;1.02;;;;;;;20.54;76.46;99163.31;5023429;28;20029;-77
2023/09/14 08:23:21;;;;;;;2.00;1.00;;;;;;;20.73;72.75;98857.25;5019259;28;20073;-76
2023/09/14 08:25:47;;;;;;;2.33;0.77;;;;;;;21.78;72.17;99161.53;5035030;28;20044;-76
2023/09/14 08:28:14;;;;;;;3.25;1.00;;;;;;;22.32;70.13;99054.84;5020708;28;20033;-76
2023/09/14 08:30:41;;;;;;;2.20;1.20;;;;;;;22.31;68.82;99006.97;5023447;28;20017;-77
2023/09/14 08:33:07;;;;;;;2.30;0.88;;;;;;;23.33;66.83;99131.38;5021080;28;20037;-75
2023/09/14 08:35:34;;;;;;;3.53;1.05;;;;;;;23.30;64.34;98807.16;5017750;28;20037;-76
2023/09/14 08:38:02;;;;;;;2.85;1.13;;;;;;;22.97;60.73;98336.31;5022672;28;20033;-77
2023/09/14 08:40:29;;;;;;;3.65;1.00;;;;;;;23.12;59.58;98325.13;5019126;28;20053;-76
2023/09/14 08:42:56;;;;;;;3.20;0.98;;;;;;;23.39;60.48;98628.41;5019306;28;20040;-77
2023/09/14 08:45:25;;;;;;;1.27;0.70;;;;;;;22.89;59.32;98339.72;5021321;28;20027;-76
2023/09/14 08:47:53;;;;;;;4.70;0.73;;;;;;;22.47;58.73;98208.38;5021326;28;20053;-76
2023/09/14 08:50:20;;;;;;;2.83;0.90;;;;;;;21.70;60.17;98264.03;5020202;28;20096;-77
2023/09/14 08:52:46;;;;;;;1.65;1.08;;;;;;;21.17;60.93;98329.38;5018728;28;20265;-76
2023/09/14 08:55:12;;;;;;;2.35;0.80;;;;;;;20.89;62.20;98575.16;5020533;28;20479;-76
2023/09/14 08:57:43;;;;;;;1.27;0.98;;;;;;;20.65;64.26;98771.88;5017123;28;20040;-76
2023/09/14 09:00:15;;;;;;;2.67;0.80;;;;;;;21.47;61.84;98798.63;5017737;28;20071;-76
2023/09/14 09:02:52;;;;;;;2.90;0.90;;;;;;;22.06;63.27;99196.25;5016716;28;20038;-75
2023/09/14 09:05:19;;;;;;;3.03;0.90;;;;;;;21.70;63.11;99014.38;5019433;28;20053;-76
2023/09/14 09:07:47;;;;;;;4.25;0.88;;;;;;;21.84;60.75;98742.91;5016621;28;20049;-76
2023/09/14 09:10:21;;;;;;;1.70;0.90;;;;;;;22.90;59.30;98888.19;5021265;28;20034;-76
2023/09/14 09:12:47;;;;;;;3.25;1.05;;;;;;;22.47;60.32;98852.72;5017342;28;20120;-76
2023/09/14 09:15:13;;;;;;;5.32;0.93;;;;;;;21.95;61.91;98900.41;5019840;28;20160;-76
2023/09/14 09:17:40;;;;;;;2.13;0.75;;;;;;;22.58;61.09;99071.00;5017743;28;20056;-76
2023/09/14 09:20:13;;;;;;;;;;;;;;;22.80;58.46;98754.97;5017628;28;20157;-76
2023/09/14 09:22:41;;;;;;;2.05;0.60;;;;;;;22.05;59.87;98688.38;5017856;28;19913;-76
2023/09/14 09:25:06;;;;;;;4.13;1.23;;;;;;;22.53;61.38;99126.22;5017048;28;20026;-76
2023/09/14 09:27:32;;;;;;;4.45;0.90;;;;;;;22.86;61.89;99295.25;5021699;28;20083;-77
2023/09/14 09:29:58;;;;;;;2.57;1.00;;;;;;;23.14;59.34;99008.78;5014771;28;20032;-76
2023/09/14 09:32:23;;;;;;;1.70;0.70;;;;;;;23.21;59.50;99089.31;5020763;28;20041;-77
2023/09/14 09:34:49;;;;;;;0.87;0.53;;;;;;;22.80;59.62;98931.81;5017274;28;20033;-76
2023/09/14 09:37:14;;;;;;;5.97;0.70;;;;;;;23.03;56.27;98441.22;5018454;28;20545;-76
2023/09/14 09:39:44;;;;;;;6.40;1.00;;;;;;;23.75;56.44;98864.81;5016057;28;20457;-77
2023/09/14 09:42:12;;;;;;;5.32;0.90;;;;;;;23.06;57.02;98646.63;5019530;28;20276;-76
2023/09/14 09:44:38;;;;;;;4.43;1.40;;;;;;;22.66;57.78;98592.50;5019312;28;20022;-77
2023/09/14 09:47:04;;;;;;;2.80;0.73;;;;;;;22.82;59.25;99008.50;5022106;28;20037;-76
2023/09/14 09:49:31;;;;;;;2.65;1.10;;;;;;;23.80;57.40;99118.13;5017506;28;20033;-76
2023/09/14 09:51:57;;;;;;;5.47;1.27;;;;;;;24.49;54.87;98823.28;5015982;28;20038;-76
2023/09/14 09:54:27;;;;;;;;;;;;;;;23.87;56.13;98843.38;5017915;28;20028;-77
2023/09/14 09:56:53;;;;;;;4.85;0.98;;;;;;;23.44;55.44;98533.03;5017287;28;19997;-76
2023/09/14 09:59:18;;;;;;;4.72;1.00;;;;;;;23.45;56.07;98678.94;5018108;28;20029;-76
2023/09/14 10:01:48;;;;;;;6.57;1.15;;;;;;;22.38;58.20;98636.94;5016154;28;20459;-76
2023/09/14 10:04:16;;;;;;;2.22;1.02;;;;;;;22.39;59.94;98943.06;5018189;28;20073;-76
2023/09/14 10:06:50;;;;;;;7.40;1.27;;;;;;;23.35;59.73;99352.47;5034133;28;20038;-76
2023/09/14 10:09:15;;;;;;;4.28;0.85;;;;;;;24.40;58.79;99554.91;5019391;28;20395;-76
2023/09/14 10:11:41;;;;;;;2.17;1.02;;;;;;;24.37;57.52;99320.91;5015885;28;20029;-76
2023/09/14 10:14:13;;;;;;;3.65;0.82;;;;;;;24.78;56.25;99205.84;5019375;28;20025;-77
2023/09/14 10:16:43;;;;;;;4.80;1.35;;;;;;;24.46;55.79;98947.38;5016486;28;20057;-76
2023/09/14 10:19:09;;;;;;;2.88;0.93;;;;;;;24.68;56.00;99060.56;5018383;28;20091;-76
2023/09/14 10:21:36;;;;;;;3.47;1.10;;;;;;;25.43;52.29;98748.19;5019743;28;20276;-76
2023/09/14 10:24:06;;;;;;;4.15;2.33;;;;;;;23.82;53.19;98248.72;5022995;28;20033;-76
2023/09/14 10:26:34;;;;;;;2.58;0.73;;;;;;;23.87;53.84;98491.09;5021132;28;20435;-76
2023/09/14 10:29:00;;;;;;;2.80;0.80;;;;;;;23.47;52.84;98173.00;5015820;28;20094;-77
2023/09/14 10:31:28;;;;;;;2.67;0.70;;;;;;;24.75;55.56;99209.19;5021287;28;20033;-76
2023/09/14 10:33:59;;;;;;;2.03;0.73;;;;;;;24.68;53.45;98764.00;5020053;28;20048;-76
2023/09/14 10:36:28;;;;;;;3.45;1.00;;;;;;;24.98;53.52;98903.66;5021409;28;20059;-77
2023/09/14 10:38:53;;;;;;;5.95;1.00;;;;;;;23.95;53.52;98435.84;5021224;28;20026;-76
2023/09/14 10:41:19;;;;;;;3.83;1.20;;;;;;;23.57;54.64;98534.94;5021950;28;20030;-76
2023/09/14 10:43:44;;;;;;;5.88;1.40;;;;;;;22.83;53.70;98036.28;5007587;28;20037;-76
2023/09/14 10:46:15;;;;;;;2.40;0.87;;;;;;;23.47;54.31;98534.34;5008436;28;20034;-76
2023/09/14 10:48:54;;;;;;;5.20;0.85;;;;;;;23.82;54.75;98707.22;5016259;28;20048;-77
2023/09/14 10:51:21;;;;;;;2.95;0.95;;;;;;;23.92;53.73;98589.06;5010561;28;20041;-75
2023/09/14 10:53:46;;;;;;;3.30;0.90;;;;;;;23.33;54.79;98531.59;5015728;28;20026;-76
2023/09/14 10:56:31;;;;;;;3.40;0.80;;;;;;;23.96;53.71;98658.22;5007984;28;20040;-76
2023/09/14 10:58:58;;;;;;;3.42;0.90;;;;;;;24.41;53.25;98800.22;5028038;28;20034;-76
2023/09/14 11:01:25;;;;;;;2.75;1.20;;;;;;;25.11;51.38;98736.31;5022456;28;20041;-76
2023/09/14 11:04:11;;;;;;;2.90;0.60;;;;;;;24.44;49.94;98066.84;5036282;28;20038;-76
2023/09/14 11:06:47;;;;;;;2.70;0.90;;;;;;;24.38;50.24;98136.28;5018826;28;20037;-75
2023/09/14 11:09:14;;;;;;;2.97;0.60;;;;;;;24.11;51.49;98229.97;5016920;28;20502;-76
2023/09/14 11:11:40;;;;;;;4.45;1.30;;;;;;;23.11;50.50;97637.81;5019402;28;20022;-76
2023/09/14 11:14:10;;;;;;;5.05;1.10;;;;;;;22.73;51.77;97703.66;5019062;28;20061;-76
2023/09/14 11:16:45;;;;;;;3.88;0.60;;;;;;;22.49;51.10;97746.75;5017989;28;20488;-75
2023/09/14 11:19:34;;;;;;;2.97;0.75;;;;;;;22.62;53.32;98153.69;5016583;28;20037;-75
2023/09/14 11:22:10;;;;;;;4.03;0.88;;;;;;;22.70;51.92;97981.63;5021304;28;20029;-75
2023/09/14 11:24:36;;;;;;;10.52;1.60;;;;;;;23.13;53.73;98525.41;5018672;28;20037;-75